Terminal Aerodrome Forecast
Issued by NWS

Home | Current Version | Previous Version | Text Only | Print | Product List | Glossary Off
Versions: 1 2 3 4 5 6 7 8 9 10 11 12 13 14 15 16

000
FTUS45 KGGW 231447 AAA
TAFGDV
TAF AMD
KGDV 231447Z 2315/2412 08018KT P6SM OVC008
     FM231800 09013KT P6SM OVC015
     FM232200 10014KT P6SM BKN050
     FM240400 08010KT P6SM -SHRA OVC026
     FM240900 04009KT P6SM VCSH OVC011=

USA.gov is the U.S. government's official web portal to all federal, state and local government web resources and services.